createdAt,value
2023-04-15T00:01:02.854Z,98665.47
2023-04-15T00:03:35.102Z,98659.25
2023-04-15T00:06:04.990Z,98653.16
2023-04-15T00:08:34.532Z,98664.50
2023-04-15T00:11:06.091Z,98655.69
2023-04-15T00:13:36.064Z,98648.75
2023-04-15T00:16:09.290Z,98657.50
2023-04-15T00:18:39.443Z,98659.16
2023-04-15T00:21:09.367Z,98655.53
2023-04-15T00:23:39.241Z,98653.94
2023-04-15T00:26:08.821Z,98661.88
2023-04-15T00:28:38.624Z,98654.91
2023-04-15T00:31:11.163Z,98659.19
2023-04-15T00:33:40.800Z,98665.34
2023-04-15T00:36:11.362Z,98670.72
2023-04-15T00:38:42.222Z,98657.63
2023-04-15T00:41:13.726Z,98649.00
2023-04-15T00:43:43.570Z,98647.25
2023-04-15T00:46:17.807Z,98660.50
2023-04-15T00:48:47.710Z,98656.97
2023-04-15T00:51:17.797Z,98657.75
2023-04-15T00:53:47.348Z,98662.13
2023-04-15T00:56:17.244Z,98668.28
2023-04-15T00:58:46.872Z,98671.81
2023-04-15T01:01:21.575Z,98667.47
2023-04-15T01:03:52.576Z,98669.25
2023-04-15T01:06:22.454Z,98663.16
2023-04-15T01:08:52.222Z,98670.00
2023-04-15T01:11:22.355Z,98663.81
2023-04-15T01:13:52.129Z,98677.81
2023-04-15T01:16:24.447Z,98661.16
2023-04-15T01:18:54.600Z,98662.91
2023-04-15T01:21:24.959Z,98657.69
2023-04-15T01:23:56.179Z,98658.50
2023-04-15T01:26:29.152Z,98655.84
2023-04-15T01:28:58.789Z,98655.84
2023-04-15T01:31:28.573Z,98661.13
2023-04-15T01:33:58.716Z,98655.84
2023-04-15T01:36:28.285Z,98665.38
2023-04-15T01:38:59.167Z,98669.75
2023-04-15T01:41:31.990Z,98670.63
2023-04-15T01:44:01.809Z,98668.09
2023-04-15T01:46:31.572Z,98675.13
2023-04-15T01:49:01.348Z,98670.75
2023-04-15T01:51:31.209Z,98671.66
2023-04-15T01:54:00.909Z,98666.34
2023-04-15T01:56:33.694Z,98676.91
2023-04-15T01:59:03.920Z,98670.66
2023-04-15T02:01:33.522Z,98672.31
2023-04-15T02:04:03.533Z,98671.38
2023-04-15T02:06:33.520Z,98672.31
2023-04-15T02:09:04.458Z,98689.88
2023-04-15T02:11:37.360Z,98679.50
2023-04-15T02:14:07.169Z,98681.22
2023-04-15T02:16:37.000Z,98687.38
2023-04-15T02:19:06.710Z,98692.66
2023-04-15T02:21:36.311Z,98690.97
2023-04-15T02:24:05.928Z,98681.44
2023-04-15T02:26:38.093Z,98680.66
2023-04-15T02:29:07.943Z,98686.00
2023-04-15T02:31:40.784Z,98689.56
2023-04-15T02:34:10.427Z,98693.22
2023-04-15T02:36:40.898Z,98688.88
2023-04-15T02:39:10.435Z,98692.47
2023-04-15T02:41:43.980Z,98679.44
2023-04-15T02:44:13.543Z,98689.16
2023-04-15T02:46:43.478Z,98684.81
2023-04-15T02:49:12.994Z,98681.41
2023-04-15T02:51:42.480Z,98685.00
2023-04-15T02:54:12.154Z,98690.13
2023-04-15T02:56:44.242Z,98690.91
2023-04-15T02:59:13.970Z,98689.16
2023-04-15T03:01:43.941Z,98696.22
2023-04-15T03:04:14.562Z,98692.00
2023-04-15T03:06:44.283Z,98697.44
2023-04-15T03:09:13.822Z,98708.06
2023-04-15T03:11:45.915Z,98714.22
2023-04-15T03:14:15.695Z,98710.84
2023-04-15T03:16:45.229Z,98718.81
2023-04-15T03:19:14.758Z,98724.09
2023-04-15T03:21:44.361Z,98728.56
2023-04-15T03:24:16.591Z,98728.56
2023-04-15T03:26:49.453Z,98721.59
2023-04-15T03:29:19.011Z,98722.34
2023-04-15T03:31:48.578Z,98728.44
2023-04-15T03:34:18.082Z,98726.59
2023-04-15T03:36:47.654Z,98744.91
2023-04-15T03:39:17.377Z,98747.63
2023-04-15T03:41:49.490Z,98747.63
2023-04-15T03:44:19.959Z,98745.88
2023-04-15T03:46:49.593Z,98759.06
2023-04-15T03:49:19.519Z,98771.41
2023-04-15T03:51:49.308Z,98775.00
2023-04-15T03:54:18.866Z,98771.59
2023-04-15T03:56:51.003Z,98784.81
2023-04-15T03:59:20.614Z,98791.00
2023-04-15T04:01:50.208Z,98800.72
2023-04-15T04:04:19.973Z,98787.72
2023-04-15T04:06:49.858Z,98795.63
2023-04-15T04:09:19.384Z,98796.63
2023-04-15T04:11:51.581Z,98804.56
2023-04-15T04:14:21.154Z,98810.72
2023-04-15T04:16:51.074Z,98805.53
2023-04-15T04:19:21.001Z,98816.09
2023-04-15T04:21:50.557Z,98808.25
2023-04-15T04:24:20.122Z,98814.34
2023-04-15T04:26:52.282Z,98819.66
2023-04-15T04:29:22.024Z,98823.19
2023-04-15T04:31:52.016Z,98826.69
2023-04-15T04:34:21.663Z,98832.81
2023-04-15T04:36:51.271Z,98838.09
2023-04-15T04:39:20.792Z,98845.13
2023-04-15T04:41:53.046Z,98841.63
2023-04-15T04:44:22.620Z,98839.91
2023-04-15T04:46:52.168Z,98847.75
2023-04-15T04:49:21.741Z,98848.66
2023-04-15T04:51:51.660Z,98853.03
2023-04-15T04:54:21.454Z,98848.69
2023-04-15T04:56:53.584Z,98854.81
2023-04-15T04:59:23.107Z,98847.84
2023-04-15T05:01:52.846Z,98848.72
2023-04-15T05:04:22.371Z,98852.19
2023-04-15T05:06:51.915Z,98856.56
2023-04-15T05:09:21.579Z,98856.56
2023-04-15T05:11:53.698Z,98861.81
2023-04-15T05:14:23.457Z,98856.56
2023-04-15T05:16:53.269Z,98854.81
2023-04-15T05:19:22.863Z,98854.81
2023-04-15T05:21:52.420Z,98860.91
2023-04-15T05:24:22.578Z,98872.28
2023-04-15T05:26:54.695Z,98875.75
2023-04-15T05:29:24.263Z,98864.38
2023-04-15T05:31:53.797Z,98867.00
2023-04-15T05:34:23.383Z,98881.84
2023-04-15T05:36:52.952Z,98880.09
2023-04-15T05:39:29.455Z,98873.94
2023-04-15T05:42:01.694Z,98881.72
2023-04-15T05:44:31.238Z,98886.91
2023-04-15T05:47:00.961Z,98892.94
2023-04-15T05:49:30.879Z,98896.31
2023-04-15T05:52:00.916Z,98897.84
2023-04-15T05:54:30.655Z,98909.84
2023-04-15T05:57:03.020Z,98909.66
2023-04-15T05:59:33.064Z,98913.47
2023-04-15T06:02:02.828Z,98916.50
2023-04-15T06:04:32.933Z,98918.31
2023-04-15T06:07:02.594Z,98928.09
2023-04-15T06:09:32.458Z,98937.03
2023-04-15T06:12:04.823Z,98937.88
2023-04-15T06:14:34.636Z,98946.44
2023-04-15T06:17:04.351Z,98938.94
2023-04-15T06:19:33.932Z,98949.06
2023-04-15T06:22:03.610Z,98947.34
2023-04-15T06:24:33.382Z,98948.22
2023-04-15T06:27:05.539Z,98949.59
2023-04-15T06:29:35.124Z,98953.50
2023-04-15T06:32:04.712Z,98949.44
2023-04-15T06:34:34.262Z,98958.31
2023-04-15T06:37:05.778Z,98956.59
2023-04-15T06:39:35.989Z,98964.22
2023-04-15T06:42:08.328Z,98959.59
2023-04-15T06:44:37.855Z,98953.28
2023-04-15T06:47:07.425Z,98962.13
2023-04-15T06:49:36.980Z,98967.41
2023-04-15T06:52:06.512Z,98978.56
2023-04-15T06:54:36.042Z,98973.63
2023-04-15T06:57:09.481Z,98970.03
2023-04-15T06:59:39.025Z,98971.81
2023-04-15T07:02:08.605Z,98972.03
2023-04-15T07:04:38.277Z,98979.19
2023-04-15T07:07:08.394Z,98985.50
2023-04-15T07:09:38.647Z,98984.63
2023-04-15T07:12:10.812Z,98994.13
2023-04-15T07:14:40.423Z,98992.47
2023-04-15T07:17:10.007Z,98991.53
2023-04-15T07:19:39.535Z,98990.47
2023-04-15T07:22:09.353Z,98997.19
2023-04-15T07:24:38.878Z,98993.00
2023-04-15T07:27:11.086Z,98998.47
2023-04-15T07:29:40.617Z,99001.88
2023-04-15T07:32:10.693Z,99004.91
2023-04-15T07:34:41.684Z,99003.19
2023-04-15T07:37:11.440Z,99010.97
2023-04-15T07:39:41.209Z,99016.81
2023-04-15T07:42:13.415Z,99016.06
2023-04-15T07:44:43.039Z,99011.31
2023-04-15T07:47:12.603Z,99012.38
2023-04-15T07:49:42.143Z,99010.56
2023-04-15T07:52:11.764Z,99004.97
2023-04-15T07:54:41.308Z,99012.50
2023-04-15T07:57:13.407Z,99009.00
2023-04-15T07:59:42.951Z,99004.69
2023-04-15T08:02:13.785Z,98997.28
2023-04-15T08:04:43.385Z,99010.78
2023-04-15T08:07:13.162Z,99006.44
2023-04-15T08:09:42.683Z,99020.16
2023-04-15T08:12:15.281Z,99016.91
2023-04-15T08:14:44.888Z,99027.72
2023-04-15T08:17:14.418Z,99025.97
2023-04-15T08:19:48.427Z,99032.69
2023-04-15T08:22:19.637Z,99034.47
2023-04-15T08:24:50.215Z,99039.47
2023-04-15T08:27:22.457Z,99050.03
2023-04-15T08:29:51.983Z,99045.50
2023-04-15T08:32:21.859Z,99043.28
2023-04-15T08:34:51.538Z,99050.09
2023-04-15T08:37:21.420Z,99047.03
2023-04-15T08:39:50.923Z,99066.34
2023-04-15T08:42:30.622Z,99059.69
2023-04-15T08:45:02.826Z,99068.44
2023-04-15T08:47:34.587Z,99067.22
2023-04-15T08:50:06.490Z,99062.63
2023-04-15T08:52:36.542Z,99081.25
2023-04-15T08:55:07.101Z,99082.59
2023-04-15T08:57:40.606Z,99083.44
2023-04-15T09:00:12.686Z,99091.06
2023-04-15T09:02:42.832Z,99081.91
2023-04-15T09:05:13.098Z,99080.06
2023-04-15T09:07:42.713Z,99093.34
2023-04-15T09:10:13.428Z,99080.69
2023-04-15T09:12:45.629Z,99069.56
2023-04-15T09:15:16.560Z,99076.19
2023-04-15T09:17:46.886Z,99071.53
2023-04-15T09:20:18.911Z,99071.59
2023-04-15T09:22:50.383Z,99074.13
2023-04-15T09:25:34.962Z,99085.38
2023-04-15T09:28:07.563Z,99084.91
2023-04-15T09:30:37.584Z,99087.91
2023-04-15T09:33:08.860Z,99090.16
2023-04-15T09:35:38.849Z,99086.41
2023-04-15T09:38:10.939Z,99094.44
2023-04-15T09:40:42.137Z,99092.47
2023-04-15T09:43:14.692Z,99097.34
2023-04-15T09:45:51.481Z,99094.88
2023-04-15T09:48:23.768Z,99097.88
2023-04-15T09:50:54.172Z,99092.16
2023-04-15T09:53:26.077Z,99097.78
2023-04-15T09:55:56.888Z,99094.91
2023-04-15T09:58:30.638Z,99098.78
2023-04-15T10:01:01.991Z,99106.25
2023-04-15T10:03:33.389Z,99107.84
2023-04-15T10:06:04.278Z,99105.34
2023-04-15T10:08:35.715Z,99100.84
2023-04-15T10:11:05.954Z,99114.41
2023-04-15T10:13:40.117Z,99101.38
2023-04-15T10:16:13.531Z,99110.00
2023-04-15T10:18:46.689Z,99104.22
2023-04-15T10:21:18.944Z,99107.75
2023-04-15T10:23:48.604Z,99110.50
2023-04-15T10:26:18.791Z,99104.03
2023-04-15T10:28:51.388Z,99100.88
2023-04-15T10:31:21.275Z,99099.16
2023-04-15T10:33:52.521Z,99098.75
2023-04-15T10:36:23.222Z,99104.03
2023-04-15T10:38:52.816Z,99102.16
2023-04-15T10:41:23.918Z,99101.50
2023-04-15T10:43:58.363Z,99101.75
2023-04-15T10:46:39.555Z,99121.59
2023-04-15T10:49:13.818Z,99117.59
2023-04-15T10:51:44.928Z,99118.09
2023-04-15T10:54:18.286Z,99121.63
2023-04-15T10:56:48.927Z,99121.41
2023-04-15T10:59:22.390Z,99129.44
2023-04-15T11:02:00.398Z,99129.00
2023-04-15T11:04:54.549Z,99129.44
2023-04-15T11:07:37.961Z,99130.59
2023-04-15T11:10:34.889Z,99129.84
2023-04-15T11:13:06.691Z,99131.22
2023-04-15T11:15:41.184Z,99134.56
2023-04-15T11:18:13.874Z,99127.75
2023-04-15T11:20:45.537Z,99127.88
2023-04-15T11:23:16.140Z,99132.00
2023-04-15T11:25:46.850Z,99129.78
2023-04-15T11:28:16.734Z,99132.34
2023-04-15T11:30:49.643Z,99139.56
2023-04-15T11:33:19.187Z,99143.91
2023-04-15T11:35:48.745Z,99135.44
2023-04-15T11:38:19.599Z,99152.72
2023-04-15T11:40:49.461Z,99145.78
2023-04-15T11:43:21.690Z,99157.25
2023-04-15T11:45:57.015Z,99151.53
2023-04-15T11:48:28.378Z,99154.88
2023-04-15T11:50:59.279Z,99154.94
2023-04-15T11:53:40.828Z,99160.94
2023-04-15T11:56:11.845Z,99152.66
2023-04-15T11:58:43.523Z,99151.41
2023-04-15T12:01:16.010Z,99151.28
2023-04-15T12:03:48.597Z,99152.59
2023-04-15T12:06:20.792Z,99164.75
2023-04-15T12:09:00.801Z,99171.56
2023-04-15T12:11:32.611Z,99176.09
2023-04-15T12:14:06.292Z,99176.63
2023-04-15T12:16:48.135Z,99178.41
2023-04-15T12:19:22.393Z,99178.19
2023-04-15T12:21:52.559Z,99171.19
2023-04-15T12:24:25.511Z,99173.25
2023-04-15T12:26:57.406Z,99180.41
2023-04-15T12:29:29.826Z,99173.25
2023-04-15T12:32:06.889Z,99183.63
2023-04-15T12:34:39.243Z,99176.75
2023-04-15T12:37:12.322Z,99181.22
2023-04-15T12:39:43.915Z,99179.88
2023-04-15T12:42:14.316Z,99183.47
2023-04-15T12:44:44.144Z,99178.19
2023-04-15T12:47:16.369Z,99183.44
2023-04-15T12:49:45.931Z,99178.41
2023-04-15T12:52:16.822Z,99181.88
2023-04-15T12:54:46.466Z,99183.34
2023-04-15T12:57:16.003Z,99185.63
2023-04-15T12:59:45.707Z,99188.16
2023-04-15T13:02:18.139Z,99181.84
2023-04-15T13:04:47.910Z,99184.25
2023-04-15T13:07:17.551Z,99184.75
2023-04-15T13:09:47.079Z,99184.84
2023-04-15T13:12:17.041Z,99183.00
2023-04-15T13:14:46.670Z,99180.94
2023-04-15T13:17:20.617Z,99184.13
2023-04-15T13:19:50.268Z,99195.19
2023-04-15T13:22:19.814Z,99178.34
2023-04-15T13:24:49.767Z,99185.66
2023-04-15T13:27:19.302Z,99193.47
2023-04-15T13:29:48.873Z,99191.59
2023-04-15T13:32:21.018Z,99199.75
2023-04-15T13:34:50.853Z,99195.03
2023-04-15T13:37:21.177Z,99200.59
2023-04-15T13:39:50.702Z,99198.16
2023-04-15T13:42:20.301Z,99189.63
2023-04-15T13:44:49.925Z,99191.03
2023-04-15T13:47:22.859Z,99190.03
2023-04-15T13:49:53.156Z,99188.78
2023-04-15T13:52:22.710Z,99194.03
2023-04-15T13:55:10.318Z,99180.81
2023-04-15T13:57:41.956Z,99193.78
2023-04-15T14:00:12.880Z,99197.19
2023-04-15T14:02:45.150Z,99196.91
2023-04-15T14:05:15.188Z,99198.00
2023-04-15T14:07:45.011Z,99198.84
2023-04-15T14:10:14.862Z,99200.03
2023-04-15T14:12:44.442Z,99189.00
2023-04-15T14:15:14.328Z,99192.72
2023-04-15T14:17:46.585Z,99194.72
2023-04-15T14:20:17.141Z,99190.84
2023-04-15T14:22:46.988Z,99185.66
2023-04-15T14:25:30.502Z,99196.84
2023-04-15T14:28:02.719Z,99193.78
2023-04-15T14:30:32.556Z,99197.91
2023-04-15T14:33:04.887Z,99205.94
2023-04-15T14:35:34.567Z,99207.00
2023-04-15T14:38:04.155Z,99204.13
2023-04-15T14:40:33.720Z,99212.91
2023-04-15T14:43:03.363Z,99206.50
2023-04-15T14:45:33.446Z,99206.94
2023-04-15T14:48:06.656Z,99215.06
2023-04-15T14:50:36.339Z,99214.63
2023-04-15T14:53:05.882Z,99214.06
2023-04-15T14:55:35.441Z,99226.16
2023-04-15T14:58:04.982Z,99223.34
2023-04-15T15:00:34.687Z,99225.84
2023-04-15T15:03:12.820Z,99232.31
2023-04-15T15:05:42.833Z,99239.38
2023-04-15T15:08:13.156Z,99240.00
2023-04-15T15:10:48.987Z,99245.09
2023-04-15T15:13:20.887Z,99239.88
2023-04-15T15:15:51.902Z,99249.84
2023-04-15T15:18:25.691Z,99249.31
2023-04-15T15:20:55.278Z,99252.47
2023-04-15T15:23:24.822Z,99255.97
2023-04-15T15:25:54.657Z,99256.97
2023-04-15T15:28:24.592Z,99254.97
2023-04-15T15:30:54.244Z,99258.19
2023-04-15T15:33:27.631Z,99252.13
2023-04-15T15:35:58.190Z,99263.13
2023-04-15T15:38:27.753Z,99258.47
2023-04-15T15:40:57.289Z,99266.13
2023-04-15T15:43:26.846Z,99270.13
2023-04-15T15:45:56.449Z,99274.28
2023-04-15T15:48:28.709Z,99268.19
2023-04-15T15:50:58.314Z,99275.75
2023-04-15T15:53:27.871Z,99284.47
2023-04-15T15:55:57.524Z,99274.56
2023-04-15T15:58:27.179Z,99277.97
2023-04-15T16:00:56.882Z,99285.25
2023-04-15T16:03:29.196Z,99282.13
2023-04-15T16:05:58.886Z,99283.59
2023-04-15T16:08:28.405Z,99283.75
2023-04-15T16:10:57.996Z,99283.97
2023-04-15T16:13:27.628Z,99282.50
2023-04-15T16:15:57.234Z,99286.66
2023-04-15T16:18:29.543Z,99281.19
2023-04-15T16:20:59.260Z,99287.25
2023-04-15T16:23:28.989Z,99293.59
2023-04-15T16:25:58.527Z,99299.03
2023-04-15T16:28:28.080Z,99297.34
2023-04-15T16:30:58.084Z,99305.25
2023-04-15T16:33:30.254Z,99307.19
2023-04-15T16:35:59.785Z,99308.47
2023-04-15T16:38:29.360Z,99316.53
2023-04-15T16:41:01.683Z,99316.66
2023-04-15T16:43:31.848Z,99323.88
2023-04-15T16:46:01.697Z,99317.97
2023-04-15T16:48:33.928Z,99308.56
2023-04-15T16:51:03.682Z,99316.72
2023-04-15T16:53:33.223Z,99327.56
2023-04-15T16:56:02.753Z,99330.22
2023-04-15T16:58:32.420Z,99325.03
2023-04-15T17:01:02.235Z,99327.72
2023-04-15T17:03:34.505Z,99333.00
2023-04-15T17:06:04.320Z,99341.13
2023-04-15T17:08:36.743Z,99347.34
2023-04-15T17:11:06.594Z,99343.94
2023-04-15T17:13:36.389Z,99359.03
2023-04-15T17:16:06.111Z,99363.53
2023-04-15T17:18:38.309Z,99357.44
2023-04-15T17:21:08.549Z,99365.50
2023-04-15T17:23:38.084Z,99363.84
2023-04-15T17:26:07.759Z,99374.47
2023-04-15T17:28:37.422Z,99377.16
2023-04-15T17:31:08.569Z,99375.53
2023-04-15T17:34:00.413Z,99380.88
2023-04-15T17:36:31.080Z,99381.78
2023-04-15T17:39:00.644Z,99388.88
2023-04-15T17:41:30.196Z,99388.94
2023-04-15T17:43:59.809Z,99389.91
2023-04-15T17:46:29.942Z,99390.84
2023-04-15T17:49:02.095Z,99396.25
2023-04-15T17:51:31.941Z,99404.25
2023-04-15T17:54:01.464Z,99412.22
2023-04-15T17:56:31.442Z,99417.56
2023-04-15T17:59:02.644Z,99422.97
2023-04-15T18:01:32.458Z,99430.13
2023-04-15T18:04:04.958Z,99432.06
2023-04-15T18:06:35.104Z,99442.59
2023-04-15T18:09:04.847Z,99448.78
2023-04-15T18:11:36.035Z,99460.25
2023-04-15T18:14:06.445Z,99454.13
2023-04-15T18:16:36.416Z,99458.56
2023-04-15T18:19:08.643Z,99466.53
2023-04-15T18:21:38.156Z,99476.22
2023-04-15T18:24:08.294Z,99478.03
2023-04-15T18:26:38.072Z,99479.78
2023-04-15T18:29:07.605Z,99490.31
2023-04-15T18:31:37.222Z,99487.75
2023-04-15T18:34:09.366Z,99488.66
2023-04-15T18:36:38.979Z,99492.16
2023-04-15T18:39:08.620Z,99496.59
2023-04-15T18:41:38.198Z,99492.19
2023-04-15T18:44:07.791Z,99495.72
2023-04-15T18:46:37.401Z,99497.56
2023-04-15T18:49:09.551Z,99501.97
2023-04-15T18:51:39.066Z,99501.09
2023-04-15T18:54:08.652Z,99494.97
2023-04-15T18:56:38.310Z,99494.13
2023-04-15T18:59:27.598Z,99502.94
2023-04-15T19:01:57.507Z,99505.66
2023-04-15T19:04:30.731Z,99506.56
2023-04-15T19:07:00.870Z,99515.38
2023-04-15T19:09:31.468Z,99524.16
2023-04-15T19:12:02.598Z,99518.09
2023-04-15T19:14:32.330Z,99519.91
2023-04-15T19:17:01.873Z,99526.91
2023-04-15T19:19:34.367Z,99526.91
2023-04-15T19:22:03.967Z,99529.59
2023-04-15T19:24:34.208Z,99527.00
2023-04-15T19:27:04.525Z,99539.25
2023-04-15T19:29:34.412Z,99534.06
2023-04-15T19:32:04.093Z,99535.81
2023-04-15T19:34:36.383Z,99541.94
2023-04-15T19:37:05.969Z,99550.72
2023-04-15T19:39:35.620Z,99545.50
2023-04-15T19:42:05.528Z,99554.25
2023-04-15T19:44:35.192Z,99552.50
2023-04-15T19:47:04.761Z,99553.38
2023-04-15T19:49:36.860Z,99551.66
2023-04-15T19:52:07.524Z,99552.53
2023-04-15T19:54:37.274Z,99561.28
2023-04-15T19:57:07.161Z,99562.16
2023-04-15T19:59:37.907Z,99561.25
2023-04-15T20:02:07.526Z,99551.66
2023-04-15T20:04:39.867Z,99559.53
2023-04-15T20:07:10.253Z,99558.66
2023-04-15T20:09:39.808Z,99563.06
2023-04-15T20:12:49.321Z,99563.91
2023-04-15T20:14:58.981Z,99565.69
2023-04-15T20:17:28.575Z,99568.31
2023-04-15T20:20:00.724Z,99577.97
2023-04-15T20:22:30.244Z,99586.75
2023-04-15T20:24:59.809Z,99577.97
2023-04-15T20:27:29.398Z,99595.47
2023-04-15T20:29:58.960Z,99584.97
2023-04-15T20:32:28.768Z,99588.47
2023-04-15T20:35:00.942Z,99585.88
2023-04-15T20:37:30.948Z,99589.38
2023-04-15T20:40:00.665Z,99593.78
2023-04-15T20:42:30.371Z,99593.81
2023-04-15T20:44:59.894Z,99589.44
2023-04-15T20:47:29.655Z,99590.31
2023-04-15T20:50:01.916Z,99593.84
2023-04-15T20:52:31.511Z,99596.47
2023-04-15T20:55:01.056Z,99603.47
2023-04-15T20:57:30.660Z,99606.09
2023-04-15T21:00:00.187Z,99599.97
2023-04-15T21:02:29.824Z,99607.84
2023-04-15T21:05:02.226Z,99610.50
2023-04-15T21:07:31.828Z,99609.66
2023-04-15T21:10:01.470Z,99619.25
2023-04-15T21:12:31.253Z,99620.13
2023-04-15T21:15:00.862Z,99618.38
2023-04-15T21:17:34.030Z,99621.00
2023-04-15T21:20:06.653Z,99623.63
2023-04-15T21:22:36.211Z,99618.38
2023-04-15T21:25:05.919Z,99624.53
2023-04-15T21:27:35.496Z,99623.63
2023-04-15T21:30:05.144Z,99621.00
2023-04-15T21:32:34.759Z,99625.38
2023-04-15T21:35:07.739Z,99629.72
2023-04-15T21:37:37.743Z,99628.84
2023-04-15T21:40:08.988Z,99632.31
2023-04-15T21:42:38.856Z,99629.69
2023-04-15T21:45:09.556Z,99627.91
2023-04-15T21:48:01.232Z,99627.88
2023-04-15T21:50:31.294Z,99633.97
2023-04-15T21:53:02.130Z,99630.47
2023-04-15T21:55:31.822Z,99642.72
2023-04-15T21:58:01.379Z,99647.06
2023-04-15T22:00:31.142Z,99649.66
2023-04-15T22:03:00.841Z,99647.91
2023-04-15T22:05:33.367Z,99654.00
2023-04-15T22:08:04.826Z,99649.66
2023-04-15T22:10:34.478Z,99654.91
2023-04-15T22:13:07.236Z,99660.97
2023-04-15T22:15:37.243Z,99659.25
2023-04-15T22:18:06.842Z,99659.25
2023-04-15T22:20:38.956Z,99663.63
2023-04-15T22:23:09.992Z,99668.88
2023-04-15T22:25:40.653Z,99667.16
2023-04-15T22:28:10.684Z,99671.50
2023-04-15T22:30:40.798Z,99672.41
2023-04-15T22:33:11.994Z,99673.25
2023-04-15T22:35:44.119Z,99675.00
2023-04-15T22:38:13.796Z,99675.00
2023-04-15T22:40:43.339Z,99680.25
2023-04-15T22:43:12.864Z,99685.47
2023-04-15T22:45:42.455Z,99691.59
2023-04-15T22:48:12.113Z,99694.22
2023-04-15T22:50:44.246Z,99698.59
2023-04-15T22:53:13.805Z,99700.34
2023-04-15T22:55:46.969Z,99703.00
2023-04-15T22:58:17.285Z,99710.88
2023-04-15T23:00:47.226Z,99710.84
2023-04-15T23:03:16.831Z,99709.16
2023-04-15T23:05:49.819Z,99708.28
2023-04-15T23:08:19.320Z,99700.44
2023-04-15T23:10:50.595Z,99710.03
2023-04-15T23:13:20.163Z,99717.94
2023-04-15T23:15:49.673Z,99724.03
2023-04-15T23:18:19.174Z,99728.34
2023-04-15T23:20:51.402Z,99721.31
2023-04-15T23:23:20.947Z,99723.91
2023-04-15T23:25:50.699Z,99718.63
2023-04-15T23:28:20.210Z,99722.97
2023-04-15T23:30:49.777Z,99726.47
2023-04-15T23:33:19.310Z,99718.53
2023-04-15T23:35:51.618Z,99721.03
2023-04-15T23:38:21.168Z,99721.94
2023-04-15T23:40:50.758Z,99721.03
2023-04-15T23:43:20.471Z,99720.91
2023-04-15T23:45:50.053Z,99719.97
2023-04-15T23:48:19.575Z,99717.19
2023-04-15T23:50:51.760Z,99724.22
2023-04-15T23:53:21.344Z,99707.56
2023-04-15T23:55:51.629Z,99716.19
2023-04-15T23:58:21.164Z,99722.19
